Sie sind vermutlich noch nicht im Forum angemeldet - Klicken Sie hier um sich kostenlos anzumelden  

Synchrondatenbank (von Arne Kaul) | Deutsche Synchronkartei | Seriensynchron - SeSyDaB | dubDB | Die vergessenen Filme || Datenschutz
Sie können sich hier anmelden
Dieses Forum hat 3.252 Themen
und zur Zeit 38.561 Beiträge
Sie haben keine Schreibrechte
 Spielfilme 1990 bis 2009  »Neues Thema erstellen«
Forum Information
   Betreff Absender Antworten Zugriffe Letzter Beitrag
Der Dummschwätzer (USA 1997) VanToby 4 177 13.05.2018 23:04
Love & a .45 (1994) dlh 3 222 01.05.2018 10:26
Hot Shots 1+2 (USA 1991-1993) (1, 2) VanToby 26 2.009 30.04.2018 22:27
Küss den Frosch (The Princess And The Frog; USA, 2009) (1, 2, 3, 4, 5, 6, Letzte Seite) Isch 137 10.190 29.04.2018 15:57
Direct Hit - Im Todeskreis der Angst (USA 1994) Silenzio 0 73 26.04.2018 23:26
Bill & Teds verrückte Reise in die Zukunft (1991) dlh 12 601 25.04.2018 17:03
The Last Match - Der letzte Fight (I/USA 1991) Silenzio 0 95 22.04.2018 22:40
Dario Argentos "Sleepless" (2001) (1, 2) Slartibartfast 16 727 21.04.2018 11:42
Serial Mom - Warum lässt Mama das Morden nicht? (1993) dlh 6 538 19.04.2018 18:45
Story Of Ricky (1, 2) ElEf 23 1.092 17.04.2018 15:41
Prayers for Bobby (2008; DF: 2009) Frank Brenner 2 96 17.04.2018 15:24
Bolt - Ein Hund für alle Fälle (2008) Frank Brenner 11 1.396 15.04.2018 13:09
LOONEY TUNES Back In Action neusynchrosmachenalleskaputt 14 1.296 10.04.2018 15:47
Breaking the Waves (DK/NO/SE/FR/NL 1996) Silenzio 3 110 10.04.2018 01:22
Freundschaft, Liebe, Rache (Vento di mare) Gianfranco Mingozzi 1991 kogenta 0 68 10.04.2018 01:13
Lapitch, der kleine Schuhmacher (D/HR 1997) Edigrieg 5 150 08.04.2018 19:41
Power Rangers - Der Film (USA, 1995) hudemx 12 409 04.04.2018 17:46
Bube, Dame, Koenig grAS (Lock, stock and two smoking barrels, GB) rote Blume 13 1.329 04.04.2018 10:28
Hellraiser III: Hell on Earth (1992) WasGehtSieDasAn 11 512 30.03.2018 19:30
Der Gigant aus dem All Schlitzi 11 610 28.03.2018 20:58
Mr. Jones (USA 1993) Silenzio 0 127 26.03.2018 22:24
Teuflisch (USA 2000) VanToby 3 138 26.03.2018 01:37
2 Tage in L.A. (USA 1996) Wilkins 0 122 25.03.2018 17:08
Barbie als Prinzessin und das Dorfmädchen Besetzungsliste Mew Mew 1 1.141 21.03.2018 21:41
Eiskalte Engel (1999) (1, 2, 3, 4) Samedi 45 2.520 21.03.2018 13:13
Die Asche meiner Mutter (1999; DF: 2000) Frank Brenner 3 183 20.03.2018 20:14
Nightmare Lover (USA 1993) Silenzio 5 148 19.03.2018 02:09
Bernard & Bianca im Känguruland (1990) Edigrieg 3 250 17.03.2018 12:49
The Invincible Iron Man (2007) hudemx 1 284 16.03.2018 12:24
August (1995; DF: 1996) Frank Brenner 6 278 14.03.2018 16:30
Fires Within (USA 1991) Silenzio 0 110 13.03.2018 00:36
Die Borgia (2006) Torben 2 128 12.03.2018 23:32
Jeanne d'Arc - Die Frau des Jahrtausends (1999) Torben 3 185 12.03.2018 18:34
Der Zauberpudding (Australien 2000 / DF 2002) Edigrieg 9 292 11.03.2018 21:23
The Skulls 3, am Samstag 12.04. Das Auge 6 478 09.03.2018 16:14
Timber Falls (USA 2007) Mew Mew 4 499 05.03.2018 00:40
Meine ... und ich (3 Filme) VanToby 5 331 04.03.2018 22:52
Super Mario Bros. (1993) dlh 5 596 21.02.2018 15:37
Kikujiros Sommer (1999) dlh 2 224 19.02.2018 20:14
Das Rückgrat des Teufels (2001) Wilkins 2 159 18.02.2018 01:33
 Sprung Seite 1  2  3  4  5 - 82  weiter »

Farb-Legende: blau = Spekulation, orange = Trailer-Besetzung, grün = endgültige Besetzung, rot = Korrektur/Ergänzung zur endgültigen Besetzung

Wir lie... also, wir finden Synchron ganz in Ordnung.
Erreichbar unter
215072.homepagemodules.de -- synchron-forum.de.vu


Weitere Smileys auf www.smileygarden.de
Xobor Forum Software von Xobor | Forum, Fotos, Chat und mehr mit Xobor